KSEP/SEP METAR and TAF weather

Enter ICAO airport designator
Station Type Date Time Source
KSEP METAR 2020/03/31 12:55 UTC NOAA

KSEP 311255Z AUTO 34006KT 10SM BKN018 11/10 A3010 RMK AO2 T01050095


Station Type Date Time Source
KSEP Decoded METAR 2020/03/31 12:55 UTC NOAA

Stephenville, Clark Field Municipal Airport, TX, United States (KSEP) 32-13N 098-11W 402M
Mar 31, 2020 - 08:55 AM EDT / 2020.03.31 1255 UTC
Wind: from the NNW (340 degrees) at 7 MPH (6 KT):0
Visibility: 10 mile(s):0
Sky conditions: mostly cloudy
Temperature: 50.9 F (10.5 C)
Dew Point: 49.1 F (9.5 C)
Relative Humidity: 93%
Pressure (altimeter): 30.1 in. Hg (1019 hPa)
ob: KSEP 311255Z AUTO 34006KT 10SM BKN018 11/10 A3010 RMK AO2 T01050095
cycle: 13

Station Type Date Time Source
KSEP TAF UTC NOAA

Error!

Example: see airport list